sensor_id;sensor_type;location;lat;lon;timestamp;temperature;humidity
74364;DHT22;62797;49.740;10.154;2022-10-04T00:04:43;7.40;73.20
74364;DHT22;62797;49.740;10.154;2022-10-04T00:09:42;7.30;73.10
74364;DHT22;62797;49.740;10.154;2022-10-04T00:14:43;7.30;72.70
74364;DHT22;62797;49.740;10.154;2022-10-04T00:17:13;7.20;72.50
74364;DHT22;62797;49.740;10.154;2022-10-04T00:19:45;7.20;72.40
74364;DHT22;62797;49.740;10.154;2022-10-04T00:22:16;7.10;72.20
74364;DHT22;62797;49.740;10.154;2022-10-04T00:27:34;7.20;72.20
74364;DHT22;62797;49.740;10.154;2022-10-04T00:32:30;7.10;71.80
74364;DHT22;62797;49.740;10.154;2022-10-04T00:34:58;7.00;70.60
74364;DHT22;62797;49.740;10.154;2022-10-04T00:37:25;6.90;71.70
74364;DHT22;62797;49.740;10.154;2022-10-04T00:40:02;6.90;71.40
74364;DHT22;62797;49.740;10.154;2022-10-04T00:52:18;6.80;70.20
74364;DHT22;62797;49.740;10.154;2022-10-04T00:54:37;6.70;72.40
74364;DHT22;62797;49.740;10.154;2022-10-04T00:57:26;6.80;72.60
74364;DHT22;62797;49.740;10.154;2022-10-04T00:59:57;6.70;71.60
74364;DHT22;62797;49.740;10.154;2022-10-04T01:02:28;6.60;71.10
74364;DHT22;62797;49.740;10.154;2022-10-04T01:05:16;6.70;72.10
74364;DHT22;62797;49.740;10.154;2022-10-04T01:10:54;6.60;70.70
74364;DHT22;62797;49.740;10.154;2022-10-04T01:13:36;6.60;71.90
74364;DHT22;62797;49.740;10.154;2022-10-04T01:18:33;6.60;71.90
74364;DHT22;62797;49.740;10.154;2022-10-04T01:23:48;6.60;71.90
74364;DHT22;62797;49.740;10.154;2022-10-04T01:28:49;6.50;74.40
74364;DHT22;62797;49.740;10.154;2022-10-04T01:31:15;6.60;73.40
74364;DHT22;62797;49.740;10.154;2022-10-04T01:33:41;6.60;73.60
74364;DHT22;62797;49.740;10.154;2022-10-04T01:36:06;6.60;72.60
74364;DHT22;62797;49.740;10.154;2022-10-04T01:38:32;6.50;73.30
74364;DHT22;62797;49.740;10.154;2022-10-04T01:40:59;6.50;72.20
74364;DHT22;62797;49.740;10.154;2022-10-04T01:43:32;6.50;71.60
74364;DHT22;62797;49.740;10.154;2022-10-04T01:46:06;6.50;72.60
74364;DHT22;62797;49.740;10.154;2022-10-04T01:48:36;6.50;72.30
74364;DHT22;62797;49.740;10.154;2022-10-04T01:51:22;6.40;72.30
74364;DHT22;62797;49.740;10.154;2022-10-04T01:53:53;6.40;72.30
74364;DHT22;62797;49.740;10.154;2022-10-04T01:56:29;6.40;71.50
74364;DHT22;62797;49.740;10.154;2022-10-04T01:59:00;6.40;71.10
74364;DHT22;62797;49.740;10.154;2022-10-04T02:04:10;6.30;71.60
74364;DHT22;62797;49.740;10.154;2022-10-04T02:06:40;6.30;70.80
74364;DHT22;62797;49.740;10.154;2022-10-04T02:09:14;6.30;71.70
74364;DHT22;62797;49.740;10.154;2022-10-04T02:11:42;6.30;71.70
74364;DHT22;62797;49.740;10.154;2022-10-04T02:14:14;6.30;71.30
74364;DHT22;62797;49.740;10.154;2022-10-04T02:16:45;6.20;71.00
74364;DHT22;62797;49.740;10.154;2022-10-04T02:19:13;6.20;70.70
74364;DHT22;62797;49.740;10.154;2022-10-04T02:21:39;6.10;71.50
74364;DHT22;62797;49.740;10.154;2022-10-04T02:24:06;6.10;73.30
74364;DHT22;62797;49.740;10.154;2022-10-04T02:26:33;6.10;73.30
74364;DHT22;62797;49.740;10.154;2022-10-04T02:28:59;6.10;71.20
74364;DHT22;62797;49.740;10.154;2022-10-04T02:31:25;6.10;70.70
74364;DHT22;62797;49.740;10.154;2022-10-04T02:34:09;6.00;71.50
74364;DHT22;62797;49.740;10.154;2022-10-04T02:36:36;6.00;72.80
74364;DHT22;62797;49.740;10.154;2022-10-04T02:39:11;6.00;73.00
74364;DHT22;62797;49.740;10.154;2022-10-04T02:42:01;6.00;74.30
74364;DHT22;62797;49.740;10.154;2022-10-04T02:44:54;6.00;72.70
74364;DHT22;62797;49.740;10.154;2022-10-04T02:47:25;6.00;72.00
74364;DHT22;62797;49.740;10.154;2022-10-04T02:49:59;6.00;73.20
74364;DHT22;62797;49.740;10.154;2022-10-04T02:52:38;6.00;74.20
74364;DHT22;62797;49.740;10.154;2022-10-04T02:55:22;6.10;76.20
74364;DHT22;62797;49.740;10.154;2022-10-04T02:57:48;6.10;76.00
74364;DHT22;62797;49.740;10.154;2022-10-04T03:01:01;6.10;75.30
74364;DHT22;62797;49.740;10.154;2022-10-04T03:06:08;6.10;74.90
74364;DHT22;62797;49.740;10.154;2022-10-04T03:11:09;6.10;73.30
74364;DHT22;62797;49.740;10.154;2022-10-04T03:13:36;6.10;72.40
74364;DHT22;62797;49.740;10.154;2022-10-04T03:16:03;6.10;72.60
74364;DHT22;62797;49.740;10.154;2022-10-04T03:18:29;6.00;73.50
74364;DHT22;62797;49.740;10.154;2022-10-04T03:20:55;6.00;73.50
74364;DHT22;62797;49.740;10.154;2022-10-04T03:23:21;6.00;72.20
74364;DHT22;62797;49.740;10.154;2022-10-04T03:25:57;6.00;72.40
74364;DHT22;62797;49.740;10.154;2022-10-04T03:28:26;6.00;71.00
74364;DHT22;62797;49.740;10.154;2022-10-04T03:30:53;5.90;71.90
74364;DHT22;62797;49.740;10.154;2022-10-04T03:33:20;5.90;70.70
74364;DHT22;62797;49.740;10.154;2022-10-04T03:35:50;5.90;70.60
74364;DHT22;62797;49.740;10.154;2022-10-04T03:38:17;5.90;70.30
74364;DHT22;62797;49.740;10.154;2022-10-04T03:40:49;5.80;70.90
74364;DHT22;62797;49.740;10.154;2022-10-04T03:43:18;5.80;71.30
74364;DHT22;62797;49.740;10.154;2022-10-04T03:45:45;5.90;73.50
74364;DHT22;62797;49.740;10.154;2022-10-04T03:48:14;5.90;74.20
74364;DHT22;62797;49.740;10.154;2022-10-04T03:50:45;5.80;73.90
74364;DHT22;62797;49.740;10.154;2022-10-04T03:53:29;5.90;74.30
74364;DHT22;62797;49.740;10.154;2022-10-04T03:55:56;5.90;73.10
74364;DHT22;62797;49.740;10.154;2022-10-04T03:58:23;5.90;72.50
74364;DHT22;62797;49.740;10.154;2022-10-04T04:03:59;5.90;72.70
74364;DHT22;62797;49.740;10.154;2022-10-04T04:06:36;5.80;72.50
74364;DHT22;62797;49.740;10.154;2022-10-04T04:09:05;5.90;73.20
74364;DHT22;62797;49.740;10.154;2022-10-04T04:11:32;5.80;71.40
74364;DHT22;62797;49.740;10.154;2022-10-04T04:14:08;5.80;71.30
74364;DHT22;62797;49.740;10.154;2022-10-04T04:16:36;5.80;72.90
74364;DHT22;62797;49.740;10.154;2022-10-04T04:19:03;5.80;73.20
74364;DHT22;62797;49.740;10.154;2022-10-04T04:21:35;5.90;73.10
74364;DHT22;62797;49.740;10.154;2022-10-04T04:24:05;5.80;73.40
74364;DHT22;62797;49.740;10.154;2022-10-04T04:26:44;5.80;73.10
74364;DHT22;62797;49.740;10.154;2022-10-04T04:31:51;5.80;75.00
74364;DHT22;62797;49.740;10.154;2022-10-04T04:34:24;5.90;73.90
74364;DHT22;62797;49.740;10.154;2022-10-04T04:36:56;5.90;73.60
74364;DHT22;62797;49.740;10.154;2022-10-04T04:39:23;5.90;75.20
74364;DHT22;62797;49.740;10.154;2022-10-04T04:47:28;5.90;74.80
74364;DHT22;62797;49.740;10.154;2022-10-04T04:49:55;6.00;74.40
74364;DHT22;62797;49.740;10.154;2022-10-04T04:52:25;6.00;74.10
74364;DHT22;62797;49.740;10.154;2022-10-04T04:54:52;6.00;73.70
74364;DHT22;62797;49.740;10.154;2022-10-04T04:57:18;5.90;74.30
74364;DHT22;62797;49.740;10.154;2022-10-04T04:59:47;6.10;74.90
74364;DHT22;62797;49.740;10.154;2022-10-04T05:02:34;6.00;73.20
74364;DHT22;62797;49.740;10.154;2022-10-04T05:07:46;6.10;74.30
74364;DHT22;62797;49.740;10.154;2022-10-04T05:10:46;6.10;73.60
74364;DHT22;62797;49.740;10.154;2022-10-04T05:13:07;6.10;73.90
74364;DHT22;62797;49.740;10.154;2022-10-04T05:15:36;6.00;74.10
74364;DHT22;62797;49.740;10.154;2022-10-04T05:18:33;6.00;73.60
74364;DHT22;62797;49.740;10.154;2022-10-04T05:21:06;6.10;74.80
74364;DHT22;62797;49.740;10.154;2022-10-04T05:23:33;6.10;76.00
74364;DHT22;62797;49.740;10.154;2022-10-04T05:26:00;6.20;75.90
74364;DHT22;62797;49.740;10.154;2022-10-04T05:28:27;6.20;75.40
74364;DHT22;62797;49.740;10.154;2022-10-04T05:33:49;6.30;74.50
74364;DHT22;62797;49.740;10.154;2022-10-04T05:36:33;6.40;74.40
74364;DHT22;62797;49.740;10.154;2022-10-04T05:39:04;6.40;74.30
74364;DHT22;62797;49.740;10.154;2022-10-04T05:44:25;6.50;76.50
74364;DHT22;62797;49.740;10.154;2022-10-04T05:46:55;6.50;75.80
74364;DHT22;62797;49.740;10.154;2022-10-04T05:49:22;6.60;75.10
74364;DHT22;62797;49.740;10.154;2022-10-04T05:51:52;6.60;75.40
74364;DHT22;62797;49.740;10.154;2022-10-04T05:54:21;6.70;74.60
74364;DHT22;62797;49.740;10.154;2022-10-04T05:59:38;6.80;73.90
74364;DHT22;62797;49.740;10.154;2022-10-04T06:02:36;6.80;73.80
74364;DHT22;62797;49.740;10.154;2022-10-04T06:13:44;6.80;71.40
74364;DHT22;62797;49.740;10.154;2022-10-04T06:16:37;6.80;72.50
74364;DHT22;62797;49.740;10.154;2022-10-04T06:22:17;6.90;71.60
74364;DHT22;62797;49.740;10.154;2022-10-04T06:24:49;6.90;71.50
74364;DHT22;62797;49.740;10.154;2022-10-04T06:27:41;6.80;71.40
74364;DHT22;62797;49.740;10.154;2022-10-04T06:30:12;6.80;71.70
74364;DHT22;62797;49.740;10.154;2022-10-04T06:36:16;6.90;72.30
74364;DHT22;62797;49.740;10.154;2022-10-04T06:46:57;7.20;73.10
74364;DHT22;62797;49.740;10.154;2022-10-04T06:49:45;7.20;73.30
74364;DHT22;62797;49.740;10.154;2022-10-04T07:03:52;7.70;72.30
74364;DHT22;62797;49.740;10.154;2022-10-04T07:06:30;7.60;71.60
74364;DHT22;62797;49.740;10.154;2022-10-04T07:08:58;7.70;72.40
74364;DHT22;62797;49.740;10.154;2022-10-04T07:11:37;7.70;72.10
74364;DHT22;62797;49.740;10.154;2022-10-04T07:14:16;7.80;73.10
74364;DHT22;62797;49.740;10.154;2022-10-04T07:16:55;7.90;72.80
74364;DHT22;62797;49.740;10.154;2022-10-04T07:19:38;8.00;72.40
74364;DHT22;62797;49.740;10.154;2022-10-04T07:30:19;8.00;71.60
74364;DHT22;62797;49.740;10.154;2022-10-04T07:32:48;8.20;72.40
74364;DHT22;62797;49.740;10.154;2022-10-04T07:35:52;8.30;73.10
74364;DHT22;62797;49.740;10.154;2022-10-04T07:38:24;8.40;71.40
74364;DHT22;62797;49.740;10.154;2022-10-04T07:43:34;8.60;72.70
74364;DHT22;62797;49.740;10.154;2022-10-04T07:48:49;8.70;70.10
74364;DHT22;62797;49.740;10.154;2022-10-04T07:51:23;8.80;71.40
74364;DHT22;62797;49.740;10.154;2022-10-04T07:54:01;8.80;71.00
74364;DHT22;62797;49.740;10.154;2022-10-04T08:10:54;9.20;69.80
74364;DHT22;62797;49.740;10.154;2022-10-04T08:16:03;9.40;70.10
74364;DHT22;62797;49.740;10.154;2022-10-04T08:18:49;9.60;68.90
74364;DHT22;62797;49.740;10.154;2022-10-04T08:21:27;9.70;68.60
74364;DHT22;62797;49.740;10.154;2022-10-04T08:24:03;9.80;69.10
74364;DHT22;62797;49.740;10.154;2022-10-04T08:26:56;9.90;69.30
74364;DHT22;62797;49.740;10.154;2022-10-04T08:29:57;9.90;66.90
74364;DHT22;62797;49.740;10.154;2022-10-04T08:37:43;10.20;67.10
74364;DHT22;62797;49.740;10.154;2022-10-04T08:40:38;10.20;66.70
74364;DHT22;62797;49.740;10.154;2022-10-04T08:54:39;10.50;65.60
74364;DHT22;62797;49.740;10.154;2022-10-04T08:57:21;10.60;63.60
74364;DHT22;62797;49.740;10.154;2022-10-04T09:22:06;10.80;62.70
74364;DHT22;62797;49.740;10.154;2022-10-04T09:24:57;10.90;62.60
74364;DHT22;62797;49.740;10.154;2022-10-04T09:30:16;11.20;62.90
74364;DHT22;62797;49.740;10.154;2022-10-04T09:35:58;11.40;63.20
74364;DHT22;62797;49.740;10.154;2022-10-04T09:49:39;11.70;64.00
74364;DHT22;62797;49.740;10.154;2022-10-04T09:52:33;11.70;62.80
74364;DHT22;62797;49.740;10.154;2022-10-04T10:03:05;11.90;63.40
74364;DHT22;62797;49.740;10.154;2022-10-04T10:09:01;12.10;61.90
74364;DHT22;62797;49.740;10.154;2022-10-04T10:20:27;12.30;62.00
74364;DHT22;62797;49.740;10.154;2022-10-04T10:23:40;12.40;60.50
74364;DHT22;62797;49.740;10.154;2022-10-04T10:28:58;12.60;60.90
74364;DHT22;62797;49.740;10.154;2022-10-04T10:43:15;13.40;61.20
74364;DHT22;62797;49.740;10.154;2022-10-04T10:46:11;13.60;60.20
74364;DHT22;62797;49.740;10.154;2022-10-04T10:57:14;14.50;55.50
74364;DHT22;62797;49.740;10.154;2022-10-04T11:20:54;15.50;51.80
74364;DHT22;62797;49.740;10.154;2022-10-04T11:23:28;15.70;49.00
74364;DHT22;62797;49.740;10.154;2022-10-04T11:26:08;15.70;49.60
74364;DHT22;62797;49.740;10.154;2022-10-04T11:43:17;16.90;42.70
74364;DHT22;62797;49.740;10.154;2022-10-04T11:58:02;17.40;38.10
74364;DHT22;62797;49.740;10.154;2022-10-04T12:01:17;17.30;34.10
74364;DHT22;62797;49.740;10.154;2022-10-04T12:03:55;17.10;33.50
74364;DHT22;62797;49.740;10.154;2022-10-04T12:06:37;16.90;37.30
74364;DHT22;62797;49.740;10.154;2022-10-04T12:21:14;17.90;34.10
74364;DHT22;62797;49.740;10.154;2022-10-04T12:43:01;18.50;32.00
74364;DHT22;62797;49.740;10.154;2022-10-04T12:45:33;18.90;30.10
74364;DHT22;62797;49.740;10.154;2022-10-04T12:50:59;18.90;28.80
74364;DHT22;62797;49.740;10.154;2022-10-04T13:01:52;18.80;31.30
74364;DHT22;62797;49.740;10.154;2022-10-04T13:04:46;19.10;31.70
74364;DHT22;62797;49.740;10.154;2022-10-04T13:10:00;19.40;30.20
74364;DHT22;62797;49.740;10.154;2022-10-04T13:15:42;19.50;28.10
74364;DHT22;62797;49.740;10.154;2022-10-04T13:18:30;19.40;26.90
74364;DHT22;62797;49.740;10.154;2022-10-04T13:21:19;19.50;27.70
74364;DHT22;62797;49.740;10.154;2022-10-04T13:24:03;19.80;28.30
74364;DHT22;62797;49.740;10.154;2022-10-04T13:26:40;19.80;28.40
74364;DHT22;62797;49.740;10.154;2022-10-04T13:29:26;20.10;28.00
74364;DHT22;62797;49.740;10.154;2022-10-04T13:32:00;20.40;25.30
74364;DHT22;62797;49.740;10.154;2022-10-04T13:34:55;20.30;25.30
74364;DHT22;62797;49.740;10.154;2022-10-04T13:43:02;21.00;27.20
74364;DHT22;62797;49.740;10.154;2022-10-04T13:48:27;21.40;26.90
74364;DHT22;62797;49.740;10.154;2022-10-04T13:53:54;22.60;23.40
74364;DHT22;62797;49.740;10.154;2022-10-04T13:59:54;22.40;21.20
74364;DHT22;62797;49.740;10.154;2022-10-04T14:08:33;22.30;22.30
74364;DHT22;62797;49.740;10.154;2022-10-04T14:11:29;22.20;24.80
74364;DHT22;62797;49.740;10.154;2022-10-04T14:17:09;22.90;24.50
74364;DHT22;62797;49.740;10.154;2022-10-04T14:28:13;22.40;22.70
74364;DHT22;62797;49.740;10.154;2022-10-04T14:31:14;22.50;23.60
74364;DHT22;62797;49.740;10.154;2022-10-04T14:43:03;22.30;25.40
74364;DHT22;62797;49.740;10.154;2022-10-04T14:45:54;22.50;22.30
74364;DHT22;62797;49.740;10.154;2022-10-04T14:51:42;22.20;22.90
74364;DHT22;62797;49.740;10.154;2022-10-04T14:54:24;22.40;21.80
74364;DHT22;62797;49.740;10.154;2022-10-04T14:57:03;22.50;22.50
74364;DHT22;62797;49.740;10.154;2022-10-04T15:07:48;22.80;21.40
74364;DHT22;62797;49.740;10.154;2022-10-04T15:10:27;23.30;21.90
74364;DHT22;62797;49.740;10.154;2022-10-04T15:23:44;23.20;18.70
74364;DHT22;62797;49.740;10.154;2022-10-04T15:42:14;24.50;18.40
74364;DHT22;62797;49.740;10.154;2022-10-04T15:44:55;24.60;19.10
74364;DHT22;62797;49.740;10.154;2022-10-04T15:47:35;24.60;18.80
74364;DHT22;62797;49.740;10.154;2022-10-04T15:53:27;23.90;18.20
74364;DHT22;62797;49.740;10.154;2022-10-04T15:56:12;23.80;18.70
74364;DHT22;62797;49.740;10.154;2022-10-04T16:01:58;23.70;19.00
74364;DHT22;62797;49.740;10.154;2022-10-04T16:07:49;23.40;19.80
74364;DHT22;62797;49.740;10.154;2022-10-04T16:17:52;21.20;23.60
74364;DHT22;62797;49.740;10.154;2022-10-04T16:20:34;20.90;24.70
74364;DHT22;62797;49.740;10.154;2022-10-04T16:23:22;20.50;25.60
74364;DHT22;62797;49.740;10.154;2022-10-04T16:25:51;20.10;24.50
74364;DHT22;62797;49.740;10.154;2022-10-04T16:28:46;19.70;27.40
74364;DHT22;62797;49.740;10.154;2022-10-04T16:37:17;18.50;32.00
74364;DHT22;62797;49.740;10.154;2022-10-04T16:42:57;17.40;34.70
74364;DHT22;62797;49.740;10.154;2022-10-04T16:48:29;16.50;39.10
74364;DHT22;62797;49.740;10.154;2022-10-04T16:53:49;15.90;40.20
74364;DHT22;62797;49.740;10.154;2022-10-04T16:56:22;15.70;42.80
74364;DHT22;62797;49.740;10.154;2022-10-04T16:59:02;15.40;44.90
74364;DHT22;62797;49.740;10.154;2022-10-04T17:06:52;14.80;47.90
74364;DHT22;62797;49.740;10.154;2022-10-04T17:09:27;14.60;50.50
74364;DHT22;62797;49.740;10.154;2022-10-04T17:12:17;14.30;50.30
74364;DHT22;62797;49.740;10.154;2022-10-04T17:14:56;14.20;52.10
74364;DHT22;62797;49.740;10.154;2022-10-04T17:17:47;14.10;51.80
74364;DHT22;62797;49.740;10.154;2022-10-04T17:20:28;13.90;53.50
74364;DHT22;62797;49.740;10.154;2022-10-04T17:23:12;13.80;54.70
74364;DHT22;62797;49.740;10.154;2022-10-04T17:26:07;13.70;55.40
74364;DHT22;62797;49.740;10.154;2022-10-04T17:32:06;13.40;57.10
74364;DHT22;62797;49.740;10.154;2022-10-04T17:37:19;13.10;58.00
74364;DHT22;62797;49.740;10.154;2022-10-04T17:42:48;12.90;59.00
74364;DHT22;62797;49.740;10.154;2022-10-04T17:48:22;12.80;60.70
74364;DHT22;62797;49.740;10.154;2022-10-04T17:54:15;12.50;60.40
74364;DHT22;62797;49.740;10.154;2022-10-04T17:59:29;12.30;62.50
74364;DHT22;62797;49.740;10.154;2022-10-04T18:04:56;12.30;61.20
74364;DHT22;62797;49.740;10.154;2022-10-04T18:07:36;12.20;61.30
74364;DHT22;62797;49.740;10.154;2022-10-04T18:10:27;12.20;61.40
74364;DHT22;62797;49.740;10.154;2022-10-04T18:13:06;12.10;62.70
74364;DHT22;62797;49.740;10.154;2022-10-04T18:18:29;11.80;63.00
74364;DHT22;62797;49.740;10.154;2022-10-04T18:23:55;11.80;63.50
74364;DHT22;62797;49.740;10.154;2022-10-04T18:26:25;11.70;63.30
74364;DHT22;62797;49.740;10.154;2022-10-04T18:28:51;11.70;63.70
74364;DHT22;62797;49.740;10.154;2022-10-04T18:31:37;11.60;62.10
74364;DHT22;62797;49.740;10.154;2022-10-04T18:34:16;11.60;63.40
74364;DHT22;62797;49.740;10.154;2022-10-04T18:39:21;11.50;65.30
74364;DHT22;62797;49.740;10.154;2022-10-04T18:42:19;11.30;64.70
74364;DHT22;62797;49.740;10.154;2022-10-04T18:44:57;11.30;64.40
74364;DHT22;62797;49.740;10.154;2022-10-04T18:47:39;11.30;66.30
74364;DHT22;62797;49.740;10.154;2022-10-04T18:50:16;11.20;65.60
74364;DHT22;62797;49.740;10.154;2022-10-04T18:55:59;11.10;64.70
74364;DHT22;62797;49.740;10.154;2022-10-04T18:58:20;11.10;65.80
74364;DHT22;62797;49.740;10.154;2022-10-04T19:07:04;10.80;66.20
74364;DHT22;62797;49.740;10.154;2022-10-04T19:12:09;10.80;66.50
74364;DHT22;62797;49.740;10.154;2022-10-04T19:14:43;10.70;67.40
74364;DHT22;62797;49.740;10.154;2022-10-04T19:17:34;10.70;67.40
74364;DHT22;62797;49.740;10.154;2022-10-04T19:20:18;10.70;67.40
74364;DHT22;62797;49.740;10.154;2022-10-04T19:22:58;10.60;67.30
74364;DHT22;62797;49.740;10.154;2022-10-04T19:25:44;10.50;67.60
74364;DHT22;62797;49.740;10.154;2022-10-04T19:28:21;10.50;68.50
74364;DHT22;62797;49.740;10.154;2022-10-04T19:33:41;10.40;67.50
74364;DHT22;62797;49.740;10.154;2022-10-04T19:41:58;10.30;66.60
74364;DHT22;62797;49.740;10.154;2022-10-04T19:55:50;10.10;67.10
74364;DHT22;62797;49.740;10.154;2022-10-04T20:01:19;10.10;66.90
74364;DHT22;62797;49.740;10.154;2022-10-04T20:03:47;10.00;67.00
74364;DHT22;62797;49.740;10.154;2022-10-04T20:06:33;10.00;68.00
74364;DHT22;62797;49.740;10.154;2022-10-04T20:11:57;9.90;67.30
74364;DHT22;62797;49.740;10.154;2022-10-04T20:21:55;9.70;69.70
74364;DHT22;62797;49.740;10.154;2022-10-04T20:27:03;9.70;68.70
74364;DHT22;62797;49.740;10.154;2022-10-04T20:32:04;9.70;68.80
74364;DHT22;62797;49.740;10.154;2022-10-04T20:34:47;9.60;67.80
74364;DHT22;62797;49.740;10.154;2022-10-04T20:37:13;9.60;67.80
74364;DHT22;62797;49.740;10.154;2022-10-04T20:50:13;9.50;69.40
74364;DHT22;62797;49.740;10.154;2022-10-04T20:52:53;9.50;70.60
74364;DHT22;62797;49.740;10.154;2022-10-04T20:55:34;9.50;70.60
74364;DHT22;62797;49.740;10.154;2022-10-04T21:00:59;9.50;69.20
74364;DHT22;62797;49.740;10.154;2022-10-04T21:03:30;9.40;69.70
74364;DHT22;62797;49.740;10.154;2022-10-04T21:06:14;9.40;69.40
74364;DHT22;62797;49.740;10.154;2022-10-04T21:08:41;9.40;68.60
74364;DHT22;62797;49.740;10.154;2022-10-04T21:21:59;9.30;68.60
74364;DHT22;62797;49.740;10.154;2022-10-04T21:27:31;9.20;70.20
74364;DHT22;62797;49.740;10.154;2022-10-04T21:29:58;9.20;70.20
74364;DHT22;62797;49.740;10.154;2022-10-04T21:32:24;9.10;70.40
74364;DHT22;62797;49.740;10.154;2022-10-04T21:34:50;9.10;69.80
74364;DHT22;62797;49.740;10.154;2022-10-04T21:37:16;9.10;69.80
74364;DHT22;62797;49.740;10.154;2022-10-04T21:39:42;9.10;69.50
74364;DHT22;62797;49.740;10.154;2022-10-04T21:42:08;9.10;69.40
74364;DHT22;62797;49.740;10.154;2022-10-04T21:44:34;9.10;69.80
74364;DHT22;62797;49.740;10.154;2022-10-04T21:46:59;9.10;67.50
74364;DHT22;62797;49.740;10.154;2022-10-04T21:49:25;9.00;69.60
74364;DHT22;62797;49.740;10.154;2022-10-04T21:51:51;9.00;68.30
74364;DHT22;62797;49.740;10.154;2022-10-04T21:54:16;9.00;68.80
74364;DHT22;62797;49.740;10.154;2022-10-04T21:56:42;9.00;70.10
74364;DHT22;62797;49.740;10.154;2022-10-04T21:59:07;8.90;71.00
74364;DHT22;62797;49.740;10.154;2022-10-04T22:01:33;8.90;69.80
74364;DHT22;62797;49.740;10.154;2022-10-04T22:03:58;8.90;68.70
74364;DHT22;62797;49.740;10.154;2022-10-04T22:06:24;8.90;69.20
74364;DHT22;62797;49.740;10.154;2022-10-04T22:08:50;8.80;68.40
74364;DHT22;62797;49.740;10.154;2022-10-04T22:11:15;8.80;68.30
74364;DHT22;62797;49.740;10.154;2022-10-04T22:13:41;8.80;68.70
74364;DHT22;62797;49.740;10.154;2022-10-04T22:16:07;8.70;69.20
74364;DHT22;62797;49.740;10.154;2022-10-04T22:18:33;8.70;69.00
74364;DHT22;62797;49.740;10.154;2022-10-04T22:20:59;8.70;69.20
74364;DHT22;62797;49.740;10.154;2022-10-04T22:23:28;8.70;68.30
74364;DHT22;62797;49.740;10.154;2022-10-04T22:25:58;8.60;70.00
74364;DHT22;62797;49.740;10.154;2022-10-04T22:28:25;8.60;68.80
74364;DHT22;62797;49.740;10.154;2022-10-04T22:30:51;8.60;68.60
74364;DHT22;62797;49.740;10.154;2022-10-04T22:35:48;8.50;69.40
74364;DHT22;62797;49.740;10.154;2022-10-04T22:38:13;8.50;69.10
74364;DHT22;62797;49.740;10.154;2022-10-04T22:40:39;8.50;69.40
74364;DHT22;62797;49.740;10.154;2022-10-04T22:43:10;8.50;70.50
74364;DHT22;62797;49.740;10.154;2022-10-04T22:45:37;8.50;69.50
74364;DHT22;62797;49.740;10.154;2022-10-04T22:48:10;8.40;69.10
74364;DHT22;62797;49.740;10.154;2022-10-04T22:50:38;8.40;68.10
74364;DHT22;62797;49.740;10.154;2022-10-04T22:53:15;8.30;69.00
74364;DHT22;62797;49.740;10.154;2022-10-04T22:55:41;8.30;69.50
74364;DHT22;62797;49.740;10.154;2022-10-04T22:58:11;8.30;68.20
74364;DHT22;62797;49.740;10.154;2022-10-04T23:00:37;8.20;68.60
74364;DHT22;62797;49.740;10.154;2022-10-04T23:05:41;8.30;70.50
74364;DHT22;62797;49.740;10.154;2022-10-04T23:08:07;8.30;69.40
74364;DHT22;62797;49.740;10.154;2022-10-04T23:10:33;8.30;68.00
74364;DHT22;62797;49.740;10.154;2022-10-04T23:12:58;8.40;67.10
74364;DHT22;62797;49.740;10.154;2022-10-04T23:15:24;8.40;68.80
74364;DHT22;62797;49.740;10.154;2022-10-04T23:17:53;8.40;67.90
74364;DHT22;62797;49.740;10.154;2022-10-04T23:20:22;8.40;67.30
74364;DHT22;62797;49.740;10.154;2022-10-04T23:22:49;8.30;67.50
74364;DHT22;62797;49.740;10.154;2022-10-04T23:25:26;8.30;68.20
74364;DHT22;62797;49.740;10.154;2022-10-04T23:27:53;8.30;69.90
74364;DHT22;62797;49.740;10.154;2022-10-04T23:30:21;8.30;68.80
74364;DHT22;62797;49.740;10.154;2022-10-04T23:32:52;8.30;70.60
74364;DHT22;62797;49.740;10.154;2022-10-04T23:35:27;8.40;70.60
74364;DHT22;62797;49.740;10.154;2022-10-04T23:37:54;8.40;70.00
74364;DHT22;62797;49.740;10.154;2022-10-04T23:40:21;8.30;69.90
74364;DHT22;62797;49.740;10.154;2022-10-04T23:42:49;8.40;71.90
74364;DHT22;62797;49.740;10.154;2022-10-04T23:45:19;8.40;72.00
74364;DHT22;62797;49.740;10.154;2022-10-04T23:47:47;8.40;72.20
74364;DHT22;62797;49.740;10.154;2022-10-04T23:50:23;8.40;71.40
74364;DHT22;62797;49.740;10.154;2022-10-04T23:52:51;8.40;71.30
74364;DHT22;62797;49.740;10.154;2022-10-04T23:55:25;8.40;70.30
74364;DHT22;62797;49.740;10.154;2022-10-04T23:57:53;8.30;70.00
